createdAt,value
2023-01-04T00:07:20.489Z,100772.95
2023-01-04T00:16:55.307Z,100770.08
2023-01-04T00:26:29.741Z,100762.73
2023-01-04T00:36:03.220Z,100739.78
2023-01-04T00:45:35.097Z,100723.12
2023-01-04T00:55:10.147Z,100721.12
2023-01-04T01:04:44.064Z,100711.25
2023-01-04T01:14:16.196Z,100711.76
2023-01-04T01:23:49.937Z,100705.41
2023-01-04T01:33:25.200Z,100692.89
2023-01-04T01:42:56.734Z,100680.84
2023-01-04T01:52:30.870Z,100682.91
2023-01-04T02:02:05.120Z,100660.21
2023-01-04T02:11:38.383Z,100651.89
2023-01-04T02:21:11.982Z,100648.20
2023-01-04T02:30:46.283Z,100629.48
2023-01-04T02:40:21.303Z,100613.55
2023-01-04T02:49:56.623Z,100592.81
2023-01-04T02:59:26.785Z,100584.95
2023-01-04T03:00:30.854Z,100576.91
2023-01-04T03:10:02.016Z,100571.80
2023-01-04T03:19:37.573Z,100569.45
2023-01-04T03:29:09.518Z,100559.22
2023-01-04T03:38:43.187Z,100558.84
2023-01-04T03:48:16.990Z,100549.30
2023-01-04T03:57:52.804Z,100523.22
2023-01-04T04:07:25.162Z,100514.34
2023-01-04T04:17:01.522Z,100498.30
2023-01-04T04:26:34.465Z,100490.88
2023-01-04T04:36:08.230Z,100485.28
2023-01-04T04:45:40.311Z,100471.05
2023-01-04T04:55:14.054Z,100455.70
2023-01-04T05:04:47.561Z,100464.30
2023-01-04T05:14:23.381Z,100445.09
2023-01-04T05:23:55.403Z,100431.23
2023-01-04T05:33:30.155Z,100421.45
2023-01-04T05:43:02.702Z,100415.59
2023-01-04T05:52:36.529Z,100417.80
2023-01-04T06:02:10.947Z,100397.68
2023-01-04T06:11:45.834Z,100419.70
2023-01-04T06:21:20.313Z,100423.62
2023-01-04T06:30:55.215Z,100410.83
2023-01-04T06:40:27.444Z,100410.73
2023-01-04T06:50:01.133Z,100393.86
2023-01-04T06:59:36.316Z,100387.16
2023-01-04T07:09:10.237Z,100382.61
2023-01-04T07:18:45.289Z,100347.34
2023-01-04T07:28:16.316Z,100329.41
2023-01-04T07:37:58.093Z,100312.50
2023-01-04T07:47:24.689Z,100319.78
2023-01-04T07:57:00.259Z,100331.43
2023-01-04T08:06:32.587Z,100356.58
2023-01-04T08:16:07.052Z,100333.55
2023-01-04T08:25:40.773Z,100320.48
2023-01-04T08:35:16.230Z,100329.63
2023-01-04T08:44:48.573Z,100329.70
2023-01-04T08:54:23.869Z,100331.06
2023-01-04T09:03:56.622Z,100339.44
2023-01-04T09:13:31.891Z,100326.47
2023-01-04T09:23:04.256Z,100302.13
2023-01-04T09:32:40.386Z,100311.67
2023-01-04T09:42:13.742Z,100299.84
2023-01-04T09:51:47.774Z,100300.72
2023-01-04T10:01:20.308Z,100293.17
2023-01-04T10:10:53.759Z,100296.61
2023-01-04T10:30:00.346Z,100279.78
2023-01-04T10:39:35.836Z,100270.19
2023-01-04T10:49:09.225Z,100257.67
2023-01-04T10:58:41.658Z,100246.16
2023-01-04T11:08:15.954Z,100248.92
2023-01-04T11:17:49.242Z,100229.84
2023-01-04T11:27:26.844Z,100219.61
2023-01-04T11:36:56.239Z,100193.62
2023-01-04T11:46:28.521Z,100164.66
2023-01-04T11:56:04.026Z,100178.60
2023-01-04T12:05:43.016Z,100158.72
2023-01-04T12:15:11.666Z,100142.72
2023-01-04T12:24:47.108Z,100136.44
2023-01-04T12:34:19.544Z,100121.72
2023-01-04T12:35:22.026Z,100123.23
2023-01-04T12:44:55.786Z,100127.09
2023-01-04T12:54:29.750Z,100108.44
2023-01-04T12:55:32.177Z,100112.36
2023-01-04T13:14:39.974Z,100077.38
2023-01-04T13:24:13.920Z,100065.09
2023-01-04T13:33:47.531Z,100052.37
2023-01-04T13:34:50.074Z,100049.65
2023-01-04T13:35:54.116Z,100044.34
2023-01-04T13:45:25.971Z,100040.41
2023-01-04T13:46:28.471Z,100028.56
2023-01-04T13:47:33.501Z,100037.53
2023-01-04T13:48:37.373Z,100029.60
2023-01-04T13:49:39.702Z,100031.53
2023-01-04T13:50:42.115Z,100030.38
2023-01-04T13:51:44.647Z,100030.37
2023-01-04T13:52:59.761Z,100026.36
2023-01-04T13:53:51.355Z,100041.92
2023-01-04T13:54:53.776Z,100027.13
2023-01-04T13:55:57.883Z,100038.69
2023-01-04T13:57:01.250Z,100034.98
2023-01-04T13:58:03.756Z,100028.34
2023-01-04T13:59:07.958Z,100029.52
2023-01-04T14:00:13.022Z,100021.77
2023-01-04T14:01:17.904Z,100035.00
2023-01-04T14:02:21.827Z,100032.72
2023-01-04T14:03:24.913Z,100031.73
2023-01-04T14:12:55.520Z,100037.28
2023-01-04T14:22:29.235Z,100028.87
2023-01-04T14:23:31.664Z,100026.77
2023-01-04T14:25:39.226Z,100028.69
2023-01-04T14:26:41.486Z,100026.91
2023-01-04T14:36:13.149Z,100018.65
2023-01-04T14:37:17.273Z,100015.96
2023-01-04T14:38:19.569Z,100019.34
2023-01-04T14:47:52.221Z,100023.14
2023-01-04T14:57:26.200Z,100024.85
2023-01-04T15:07:00.373Z,100000.20
2023-01-04T15:08:02.606Z,100004.16
2023-01-04T15:09:05.050Z,100006.48
2023-01-04T15:10:07.590Z,100006.38
2023-01-04T15:19:40.218Z,100006.77
2023-01-04T15:29:15.687Z,99995.38
2023-01-04T15:38:47.400Z,100001.67
2023-01-04T15:48:20.964Z,99994.63
2023-01-04T15:57:56.147Z,99986.61
2023-01-04T16:07:32.746Z,99969.83
2023-01-04T16:17:01.241Z,99959.03
2023-01-04T16:26:34.256Z,99965.93
2023-01-04T16:36:05.415Z,99933.08
2023-01-04T16:45:40.888Z,99939.58
2023-01-04T16:55:16.209Z,99935.50
2023-01-04T17:04:47.462Z,99937.59
2023-01-04T17:14:23.096Z,99917.84
2023-01-04T17:23:55.635Z,99918.66
2023-01-04T17:33:29.134Z,99920.42
2023-01-04T17:43:02.652Z,99916.91
2023-01-04T17:52:36.710Z,99907.98
2023-01-04T18:02:10.501Z,99902.05
2023-01-04T18:11:42.755Z,99890.38
2023-01-04T18:21:27.865Z,99883.18
2023-01-04T18:30:52.469Z,99883.38
2023-01-04T18:40:27.121Z,99888.52
2023-01-04T18:49:57.957Z,99894.02
2023-01-04T18:59:34.060Z,99897.66
2023-01-04T19:09:06.857Z,99903.49
2023-01-04T19:18:38.041Z,99879.55
2023-01-04T19:28:13.040Z,99887.13
2023-01-04T19:37:44.980Z,99897.83
2023-01-04T19:47:19.087Z,99888.85
2023-01-04T19:56:52.936Z,99888.80
2023-01-04T20:06:27.604Z,99901.92
2023-01-04T20:16:00.038Z,99897.13
2023-01-04T20:25:33.471Z,99887.99
2023-01-04T20:35:07.840Z,99880.59
2023-01-04T20:44:42.119Z,99895.64
2023-01-04T20:54:20.776Z,99887.92
2023-01-04T21:03:50.089Z,99879.50
2023-01-04T21:13:22.851Z,99896.90
2023-01-04T21:22:56.942Z,99893.80
2023-01-04T21:32:31.701Z,99875.75
2023-01-04T21:42:05.698Z,99881.77
2023-01-04T21:51:39.940Z,99880.00
2023-01-04T22:01:14.436Z,99857.80
2023-01-04T22:10:48.430Z,99872.45
2023-01-04T22:20:24.569Z,99871.88
2023-01-04T22:29:56.657Z,99867.23
2023-01-04T22:39:30.412Z,99879.28
2023-01-04T22:49:04.525Z,99893.32
2023-01-04T22:58:38.543Z,99876.76
2023-01-04T23:08:12.107Z,99861.34
2023-01-04T23:17:45.956Z,99849.45
2023-01-04T23:27:20.013Z,99836.22
2023-01-04T23:36:53.907Z,99820.23
2023-01-04T23:46:29.096Z,99816.91
2023-01-04T23:56:04.291Z,99807.16
